Time;durP1;ratioP1;P1;durP2;ratioP2;P2;SDS_P1;SDS_P2;PMS_P1;PMS_P2;Temp;Humidity;BMP_temperature;BMP_pressure;BME280_temperature;BME280_humidity;BME280_pressure;Samples;Min_cycle;Max_cycle;Signal;HPM_P1;HPM_P2
2023/07/23 00:01:27;;;;;;;40.03;13.13;;;;;;;;;;5072003;28;20490;-69
2023/07/23 00:03:53;;;;;;;40.58;13.25;;;;;;;;;;5072005;28;20114;-69
2023/07/23 00:06:19;;;;;;;40.72;14.32;;;;;;;;;;5071733;28;20040;-69
2023/07/23 00:08:45;;;;;;;40.58;13.73;;;;;;;;;;5071390;28;20059;-68
2023/07/23 00:11:11;;;;;;;34.10;12.45;;;;;;;;;;5071752;28;20076;-69
2023/07/23 00:13:37;;;;;;;37.20;14.43;;;;;;;;;;5071774;28;20461;-73
2023/07/23 00:16:04;;;;;;;35.65;13.40;;;15.60;99.90;;;;;;5072200;28;20032;-73
2023/07/23 00:18:30;;;;;;;32.92;12.25;;;;;;;;;;5055401;28;20036;-73
2023/07/23 00:20:56;;;;;;;36.38;13.32;;;16.20;99.90;;;;;;5071916;28;20044;-73
2023/07/23 00:23:22;;;;;;;38.40;13.85;;;14.30;99.90;;;;;;5071757;28;20037;-74
2023/07/23 00:25:48;;;;;;;44.88;14.40;;;;;;;;;;5071987;28;20044;-73
2023/07/23 00:28:14;;;;;;;44.35;13.35;;;;;;;;;;5071992;28;20139;-73
2023/07/23 00:30:41;;;;;;;39.35;13.68;;;;;;;;;;5071499;28;20040;-73
2023/07/23 00:33:07;;;;;;;40.75;14.98;;;;;;;;;;5072718;28;20040;-73
2023/07/23 00:35:33;;;;;;;38.15;13.57;;;;;;;;;;5071887;28;20037;-73
2023/07/23 00:37:59;;;;;;;34.65;13.32;;;;;;;;;;5071598;28;20037;-73
2023/07/23 00:40:25;;;;;;;37.80;14.10;;;;;;;;;;5071583;28;20052;-73
2023/07/23 00:42:51;;;;;;;39.22;13.50;;;;;;;;;;5071609;28;20051;-73
2023/07/23 00:45:17;;;;;;;33.90;15.27;;;;;;;;;;5071601;28;20076;-73
2023/07/23 00:47:44;;;;;;;41.60;16.10;;;;;;;;;;5054751;28;20060;-73
2023/07/23 00:50:10;;;;;;;31.15;14.98;;;;;;;;;;5071268;28;20131;-73
2023/07/23 00:52:36;;;;;;;34.50;14.00;;;;;;;;;;5071383;28;20037;-68
2023/07/23 00:55:03;;;;;;;31.85;14.35;;;;;;;;;;5071437;28;20486;-69
2023/07/23 00:57:29;;;;;;;41.70;15.57;;;;;;;;;;5071478;28;20132;-69
2023/07/23 00:59:59;;;;;;;38.25;14.57;;;;;;;;;;5071771;28;20493;-69
2023/07/23 01:02:28;;;;;;;41.95;14.43;;;;;;;;;;5071528;28;20059;-69
2023/07/23 01:04:55;;;;;;;39.20;13.30;;;;;;;;;;5054624;28;20036;-69
2023/07/23 01:07:21;;;;;;;42.25;14.02;;;15.50;99.90;;;;;;5071198;28;20043;-69
2023/07/23 01:09:49;;;;;;;36.80;14.25;;;15.30;99.90;;;;;;5054451;28;20147;-69
2023/07/23 01:12:17;;;;;;;40.00;13.18;;;;;;;;;;5071325;28;20041;-68
2023/07/23 01:14:43;;;;;;;39.05;13.93;;;;;;;;;;5071385;28;20506;-68
2023/07/23 01:17:11;;;;;;;31.90;12.40;;;15.50;99.90;;;;;;5071063;28;20040;-69
2023/07/23 01:19:37;;;;;;;35.35;12.57;;;;;;;;;;5073680;28;20045;-69
2023/07/23 01:22:07;;;;;;;40.53;13.88;;;14.80;99.90;;;;;;5075135;28;20102;-69
2023/07/23 01:24:36;;;;;;;41.20;13.15;;;;;;;;;;5074842;28;20045;-69
2023/07/23 01:27:02;;;;;;;43.42;13.85;;;;;;;;;;5075251;28;20048;-69
2023/07/23 01:29:29;;;;;;;37.67;14.05;;;;;;;;;;5074763;28;20047;-69
2023/07/23 01:31:55;;;;;;;36.80;13.40;;;;;;;;;;5074741;28;20040;-68
2023/07/23 01:34:22;;;;;;;37.40;14.05;;;15.40;99.90;;;;;;5074608;28;20047;-69
2023/07/23 01:36:48;;;;;;;39.28;14.55;;;;;;;;;;5074632;28;20041;-69
2023/07/23 01:39:14;;;;;;;40.72;13.40;;;;;;;;;;5074666;28;20080;-69
2023/07/23 01:41:40;;;;;;;37.72;12.52;;;;;;;;;;5074778;28;20048;-69
2023/07/23 01:44:06;;;;;;;35.63;13.30;;;;;;;;;;5074533;28;20044;-68
2023/07/23 01:46:32;;;;;;;34.53;12.65;;;;;;;;;;5074525;28;20496;-68
2023/07/23 01:48:59;;;;;;;36.08;13.85;;;;;;;;;;5057784;28;20063;-68
2023/07/23 01:51:25;;;;;;;37.38;12.82;;;;;;;;;;5074335;28;20439;-68
2023/07/23 01:53:51;;;;;;;33.72;12.80;;;;;;;;;;5074910;28;20098;-68
2023/07/23 01:56:17;;;;;;;36.47;13.02;;;;;;;;;;5074216;28;20128;-68
2023/07/23 01:58:43;;;;;;;34.95;13.80;;;;;;;;;;5041038;28;20487;-69
2023/07/23 02:01:09;;;;;;;32.97;12.80;;;;;;;;;;5074173;28;20040;-69
2023/07/23 02:03:35;;;;;;;43.88;14.60;;;;;;;;;;5074239;28;20048;-68
2023/07/23 02:06:02;;;;;;;38.10;14.25;;;;;;;;;;5074071;28;20058;-68
2023/07/23 02:08:28;;;;;;;39.15;13.85;;;15.30;99.90;;;;;;5074001;28;20045;-68
2023/07/23 02:11:01;;;;;;;38.20;13.07;;;15.40;99.90;;;;;;5074118;28;20047;-68
2023/07/23 02:13:28;;;;;;;34.67;14.07;;;15.90;99.90;;;;;;5074118;28;20127;-68
2023/07/23 02:15:54;;;;;;;37.80;13.05;;;;;;;;;;5073875;28;20097;-69
2023/07/23 02:18:20;;;;;;;39.55;13.80;;;;;;;;;;5073942;28;20405;-69
2023/07/23 02:20:46;;;;;;;38.30;13.02;;;;;;;;;;5057187;28;20496;-69
2023/07/23 02:23:18;;;;;;;37.42;13.55;;;15.40;99.90;;;;;;5074153;28;20044;-68
2023/07/23 02:25:47;;;;;;;35.75;13.93;;;16.30;99.90;;;;;;5073824;28;20032;-68
2023/07/23 02:28:13;;;;;;;33.10;13.65;;;;;;;;;;5074084;28;20390;-69
2023/07/23 02:30:39;;;;;;;36.15;14.10;;;;;;;;;;5073290;28;20076;-69
2023/07/23 02:33:05;;;;;;;36.72;12.88;;;;;;;;;;5073535;28;20040;-69
2023/07/23 02:35:35;;;;;;;34.65;13.43;;;;;;;;;;5073463;28;20071;-69
2023/07/23 02:38:01;;;;;;;32.17;13.20;;;;;;;;;;5073794;28;20039;-68
2023/07/23 02:40:31;;;;;;;33.35;13.20;;;15.40;99.90;;;;;;5073654;28;20155;-69
2023/07/23 02:42:57;;;;;;;44.58;13.23;;;;;;;;;;5074700;28;20048;-69
2023/07/23 02:45:23;;;;;;;36.78;14.45;;;;;;;;;;5073356;28;20052;-69
2023/07/23 02:47:49;;;;;;;34.28;12.77;;;;;;;;;;5056401;28;20053;-69
2023/07/23 02:50:16;;;;;;;32.33;12.48;;;;;;;;;;5073353;28;20047;-69
2023/07/23 02:52:42;;;;;;;30.60;13.40;;;;;;;;;;5073363;28;20090;-69
2023/07/23 02:55:08;;;;;;;35.28;13.75;;;;;;;;;;5073079;28;20032;-73
2023/07/23 02:57:34;;;;;;;30.20;12.88;;;;;;;;;;5073086;28;20036;-73
2023/07/23 03:00:01;;;;;;;34.28;13.35;;;;;;;;;;5072998;28;20481;-73
2023/07/23 03:02:27;;;;;;;35.92;13.68;;;;;;;;;;5056396;28;20070;-73
2023/07/23 03:04:53;;;;;;;30.63;13.65;;;;;;;;;;5056345;28;20560;-73
2023/07/23 03:07:20;;;;;;;35.10;13.77;;;;;;;;;;5072860;28;20442;-73
2023/07/23 03:09:46;;;;;;;32.58;13.30;;;15.00;99.90;;;;;;5072708;28;20406;-73
2023/07/23 03:12:12;;;;;;;48.17;12.98;;;;;;;;;;5072694;28;20478;-73
2023/07/23 03:14:38;;;;;;;37.13;14.02;;;;;;;;;;5072801;28;20044;-73
2023/07/23 03:17:04;;;;;;;33.20;14.52;;;;;;;;;;5073022;28;20372;-73
2023/07/23 03:19:30;;;;;;;34.58;14.23;;;;;;;;;;5073044;28;20047;-74
2023/07/23 03:21:56;;;;;;;36.45;13.32;;;;;;;;;;5056162;28;20037;-73
2023/07/23 03:24:22;;;;;;;34.40;13.07;;;;;;;;;;5072653;28;20125;-74
2023/07/23 03:26:48;;;;;;;38.08;14.25;;;;;;;;;;5056159;28;20063;-73
2023/07/23 03:29:14;;;;;;;29.00;13.73;;;;;;;;;;5072518;28;20052;-73
2023/07/23 03:31:40;;;;;;;40.95;15.60;;;14.10;99.90;;;;;;5072383;28;20037;-73
2023/07/23 03:34:06;;;;;;;37.38;14.45;;;;;;;;;;5055673;28;20043;-73
2023/07/23 03:36:32;;;;;;;36.63;13.88;;;;;;;;;;5055988;28;20036;-73
2023/07/23 03:38:58;;;;;;;40.53;14.57;;;;;;;;;;5072269;28;20032;-73
2023/07/23 03:41:24;;;;;;;39.22;13.95;;;;;;;;;;5072220;28;20094;-73
2023/07/23 03:43:50;;;;;;;38.38;13.70;;;;;;;;;;5071815;28;20040;-73
2023/07/23 03:46:17;;;;;;;32.47;14.63;;;;;;;;;;5055588;28;20128;-73
2023/07/23 03:48:43;;;;;;;35.08;13.65;;;;;;;;;;5055618;28;20052;-73
2023/07/23 03:51:09;;;;;;;38.28;14.85;;;;;;;;;;5055351;28;20048;-74
2023/07/23 03:53:35;;;;;;;36.58;13.68;;;;;;;;;;5055571;28;20106;-73
2023/07/23 03:56:01;;;;;;;39.83;14.23;;;;;;;;;;5055793;28;20082;-73
2023/07/23 03:58:27;;;;;;;41.65;15.07;;;;;;;;;;5055483;28;20063;-73
2023/07/23 04:00:53;;;;;;;34.05;14.27;;;;;;;;;;5072224;28;20120;-74
2023/07/23 04:03:19;;;;;;;41.00;14.50;;;;;;;;;;5072049;28;20114;-73
2023/07/23 04:05:45;;;;;;;37.40;14.15;;;;;;;;;;5071840;28;20114;-73
2023/07/23 04:08:11;;;;;;;33.45;14.27;;;16.30;99.90;;;;;;5071740;28;20044;-73
2023/07/23 04:10:37;;;;;;;37.55;14.23;;;;;;;;;;5073233;28;20040;-73
2023/07/23 04:13:03;;;;;;;37.72;13.85;;;;;;;;;;5071769;28;20098;-73
2023/07/23 04:15:31;;;;;;;34.28;13.90;;;;;;;;;;5071855;28;20093;-73
2023/07/23 04:17:57;;;;;;;38.00;13.95;;;;;;;;;;5071948;28;20044;-73
2023/07/23 04:20:23;;;;;;;40.30;14.10;;;;;;;;;;5071929;28;20052;-73
2023/07/23 04:22:49;;;;;;;37.15;14.10;;;;;;;;;;5072032;28;20036;-73
2023/07/23 04:25:15;;;;;;;38.25;14.85;;;;;;;;;;5055297;28;20040;-73
2023/07/23 04:27:41;;;;;;;36.15;13.85;;;;;;;;;;5071660;28;20066;-73
2023/07/23 04:30:08;;;;;;;36.83;14.18;;;;;;;;;;5071785;28;20379;-73
2023/07/23 04:32:34;;;;;;;35.00;14.18;;;;;;;;;;5071897;28;20114;-73
2023/07/23 04:35:00;;;;;;;34.08;14.25;;;;;;;;;;5071476;28;20374;-73
2023/07/23 04:37:26;;;;;;;39.42;14.85;;;;;;;;;;5071730;28;20033;-73
2023/07/23 04:39:52;;;;;;;37.67;13.57;;;;;;;;;;5054803;28;20036;-73
2023/07/23 04:42:18;;;;;;;37.42;14.50;;;;;;;;;;5038420;28;20047;-73
2023/07/23 04:44:44;;;;;;;36.25;14.45;;;;;;;;;;5071573;28;20482;-73
2023/07/23 04:47:10;;;;;;;33.40;14.65;;;;;;;;;;5071449;28;20066;-73
2023/07/23 04:49:36;;;;;;;37.00;15.55;;;;;;;;;;5071401;28;20048;-73
2023/07/23 04:52:02;;;;;;;33.67;13.60;;;;;;;;;;5071305;28;20072;-73
2023/07/23 04:54:28;;;;;;;40.28;15.13;;;;;;;;;;5073957;28;20048;-73
2023/07/23 04:56:54;;;;;;;32.85;12.90;;;;;;;;;;5058858;28;20040;-73
2023/07/23 04:59:20;;;;;;;33.97;14.85;;;;;;;;;;5058898;28;20119;-73
2023/07/23 05:01:47;;;;;;;35.42;13.95;;;;;;;;;;5075610;28;20117;-73
2023/07/23 05:04:13;;;;;;;30.98;13.60;;;;;;;;;;5058504;28;20052;-73
2023/07/23 05:06:39;;;;;;;33.60;14.02;;;;;;;;;;5058797;28;20427;-73
2023/07/23 05:09:05;;;;;;;36.90;14.50;;;;;;;;;;5075129;28;20040;-73
2023/07/23 05:11:31;;;;;;;35.60;14.25;;;;;;;;;;5041934;28;20040;-73
2023/07/23 05:13:57;;;;;;;34.72;13.57;;;;;;;;;;5075527;28;20494;-73
2023/07/23 05:16:23;;;;;;;42.92;15.23;;;;;;;;;;5058585;28;20045;-73
2023/07/23 05:18:49;;;;;;;33.10;14.65;;;;;;;;;;5074995;28;20070;-73
2023/07/23 05:21:15;;;;;;;34.00;14.55;;;;;;;;;;5041827;28;20055;-73
2023/07/23 05:23:43;;;;;;;37.05;14.75;;;;;;;;;;5074961;28;20051;-73
2023/07/23 05:26:10;;;;;;;37.22;14.63;;;;;;;;;;5074836;28;20086;-73
2023/07/23 05:28:36;;;;;;;34.33;14.55;;;;;;;;;;5058486;28;20275;-73
2023/07/23 05:31:02;;;;;;;36.08;14.57;;;;;;;;;;5058124;28;20049;-73
2023/07/23 05:33:28;;;;;;;34.38;14.38;;;;;;;;;;5074877;28;20036;-73
2023/07/23 05:35:54;;;;;;;31.65;14.13;;;;;;;;;;5075102;28;20082;-73
2023/07/23 05:38:20;;;;;;;34.75;14.57;;;;;;;;;;5074820;28;20493;-73
2023/07/23 05:40:57;;;;;;;34.03;14.13;;;15.50;99.90;;;;;;5074535;28;20051;-73
2023/07/23 05:43:23;;;;;;;34.75;13.40;;;;;;;;;;5074562;28;20047;-73
2023/07/23 05:45:49;;;;;;;29.25;13.77;;;;;;;;;;5074734;28;20409;-73
2023/07/23 05:48:15;;;;;;;34.75;13.93;;;;;;;;;;5074254;28;20498;-73
2023/07/23 05:50:42;;;;;;;35.78;14.30;;;;;;;;;;5057774;28;20040;-73
2023/07/23 05:53:08;;;;;;;36.70;14.10;;;;;;;;;;5074376;28;20080;-73
2023/07/23 05:55:34;;;;;;;34.97;15.07;;;;;;;;;;5074649;28;20429;-73
2023/07/23 05:58:00;;;;;;;37.30;14.15;;;;;;;;;;5041608;28;20032;-73
2023/07/23 06:00:26;;;;;;;39.25;14.55;;;;;;;;;;5074426;28;20037;-73
2023/07/23 06:02:52;;;;;;;37.95;13.88;;;;;;;;;;5041004;28;20043;-73
2023/07/23 06:05:18;;;;;;;37.83;14.57;;;;;;;;;;5073526;28;20037;-73
2023/07/23 06:07:44;;;;;;;37.40;15.35;;;;;;;;;;5057827;28;20048;-73
2023/07/23 06:10:10;;;;;;;32.88;15.40;;;;;;;;;;5074041;28;20123;-73
2023/07/23 06:12:36;;;;;;;29.15;14.43;;;;;;;;;;5057621;28;20101;-73
2023/07/23 06:15:02;;;;;;;36.22;14.70;;;;;;;;;;5057330;28;20570;-69
2023/07/23 06:17:28;;;;;;;36.45;16.00;;;;;;;;;;5073977;28;20119;-69
2023/07/23 06:19:55;;;;;;;39.38;15.27;;;;;;;;;;5057439;28;20513;-69
2023/07/23 06:22:21;;;;;;;38.88;15.35;;;;;;;;;;5073875;28;20043;-69
2023/07/23 06:24:47;;;;;;;35.95;16.25;;;;;;;;;;5057259;28;20036;-69
2023/07/23 06:27:13;;;;;;;40.95;15.60;;;;;;;;;;5057324;28;20371;-69
2023/07/23 06:29:39;;;;;;;41.60;14.90;;;;;;;;;;5057245;28;20116;-69
2023/07/23 06:32:05;;;;;;;33.10;15.50;;;;;;;;;;5056983;28;20101;-69
2023/07/23 06:34:31;;;;;;;37.50;15.88;;;;;;;;;;5056819;28;20044;-68
2023/07/23 06:36:57;;;;;;;45.88;15.90;;;;;;;;;;5057072;28;20040;-69
2023/07/23 06:39:24;;;;;;;37.97;17.25;;;;;;;;;;5073410;28;20098;-68
2023/07/23 06:41:50;;;;;;;37.90;15.98;;;;;;;;;;5073396;28;20090;-69
2023/07/23 06:44:16;;;;;;;36.85;15.77;;;;;;;;;;5073452;28;20048;-68
2023/07/23 06:46:42;;;;;;;39.13;15.55;;;;;;;;;;5073153;28;20052;-69
2023/07/23 06:49:08;;;;;;;35.40;15.68;;;;;;;;;;5073338;28;20049;-69
2023/07/23 06:51:34;;;;;;;39.75;17.55;;;;;;;;;;5073132;28;20045;-68
2023/07/23 06:54:00;;;;;;;41.78;16.40;;;;;;;;;;5073378;28;20435;-69
2023/07/23 06:56:27;;;;;;;40.30;16.65;;;;;;;;;;5073492;28;20040;-68
2023/07/23 06:58:53;;;;;;;37.30;16.13;;;;;;;;;;5073074;28;20486;-69
2023/07/23 07:01:21;;;;;;;41.15;17.77;;;;;;;;;;5073832;28;20062;-68
2023/07/23 07:03:47;;;;;;;41.40;16.75;;;;;;;;;;5073075;28;20044;-69
2023/07/23 07:06:15;;;;;;;41.05;15.57;;;;;;;;;;5072954;28;20045;-69
2023/07/23 07:08:43;;;;;;;45.83;18.90;;;;;;;;;;5073366;28;20063;-69
2023/07/23 07:11:10;;;;;;;37.13;16.92;;;;;;;;;;5072793;28;20453;-68
2023/07/23 07:13:37;;;;;;;45.00;18.00;;;;;;;;;;5072966;28;20397;-69
2023/07/23 07:16:03;;;;;;;41.60;16.58;;;;;;;;;;5072983;28;20120;-69
2023/07/23 07:18:29;;;;;;;46.47;17.63;;;;;;;;;;5071701;28;20036;-69
2023/07/23 07:20:58;;;;;;;34.88;16.85;;;;;;;;;;5056386;28;20469;-69
2023/07/23 07:23:25;;;;;;;46.72;18.55;;;15.70;99.90;;;;;;5072748;28;20036;-69
2023/07/23 07:25:51;;;;;;;41.92;17.08;;;;;;;;;;5056298;28;20063;-68
2023/07/23 07:28:17;;;;;;;48.95;18.88;;;;;;;;;;5055738;28;20056;-68
2023/07/23 07:30:43;;;;;;;47.33;17.02;;;;;;;;;;5055729;28;20040;-69
2023/07/23 07:33:09;;;;;;;51.33;18.23;;;;;;;;;;5072331;28;20554;-68
2023/07/23 07:35:35;;;;;;;49.90;18.65;;;;;;;;;;5055678;28;20039;-69
2023/07/23 07:38:01;;;;;;;58.20;20.05;;;;;;;;;;5072299;28;20529;-69
2023/07/23 07:40:28;;;;;;;54.13;19.63;;;;;;;;;;5072360;28;20547;-68
2023/07/23 07:42:54;;;;;;;53.13;22.45;;;;;;;;;;5073571;28;20483;-69
2023/07/23 07:45:20;;;;;;;52.30;21.05;;;;;;;;;;5055683;28;20040;-69
2023/07/23 07:47:46;;;;;;;47.70;20.50;;;;;;;;;;5055467;28;20063;-69
2023/07/23 07:50:12;;;;;;;54.88;21.55;;;;;;;;;;5072345;28;20064;-69
2023/07/23 07:52:38;;;;;;;52.85;21.17;;;;;;;;;;5071945;28;20066;-69
2023/07/23 07:55:04;;;;;;;44.63;20.42;;;16.90;99.90;;;;;;5071847;28;20485;-69
2023/07/23 07:57:30;;;;;;;57.72;21.13;;;;;;;;;;5072002;28;20047;-70
2023/07/23 07:59:56;;;;;;;45.28;21.92;;;16.60;99.90;;;;;;5055343;28;20036;-69
2023/07/23 08:02:22;;;;;;;48.17;22.38;;;16.50;99.90;;;;;;5072145;28;20048;-69
2023/07/23 08:04:48;;;;;;;51.05;24.63;;;15.20;99.90;;;;;;5055281;28;20048;-69
2023/07/23 08:07:14;;;;;;;55.35;24.67;;;;;;;;;;5072165;28;20076;-69
2023/07/23 08:09:43;;;;;;;58.67;26.63;;;15.90;99.90;;;;;;5071897;28;20055;-69
2023/07/23 08:12:11;;;;;;;55.25;25.65;;;;;;;;;;5071781;28;20564;-69
2023/07/23 08:14:38;;;;;;;55.63;26.90;;;;;;;;;;5071881;28;20098;-69
2023/07/23 08:17:04;;;;;;;59.70;27.63;;;;;;;;;;5071961;28;20127;-70
2023/07/23 08:19:30;;;;;;;55.40;26.60;;;;;;;;;;5071860;28;20537;-70
2023/07/23 08:21:57;;;;;;;54.15;28.55;;;;;;;;;;5055161;28;20398;-70
2023/07/23 08:24:23;;;;;;;57.63;28.90;;;;;;;;;;5071558;28;20398;-70
2023/07/23 08:26:50;;;;;;;55.17;28.45;;;16.10;99.90;;;;;;5055437;28;20052;-70
2023/07/23 08:29:19;;;;;;;49.80;25.77;;;16.40;99.90;;;;;;5071382;28;20044;-70
2023/07/23 08:31:46;;;;;;;45.85;24.48;;;;;;;;;;5071638;28;20127;-70
2023/07/23 08:34:12;;;;;;;47.15;23.80;;;;;;;;;;5071382;28;20037;-70
2023/07/23 08:36:38;;;;;;;44.30;22.50;;;17.20;99.90;;;;;;5071608;28;20044;-70
2023/07/23 08:39:04;;;;;;;50.17;23.02;;;15.20;99.90;;;;;;5071552;28;20046;-70
2023/07/23 08:41:37;;;;;;;42.30;23.17;;;15.20;99.90;;;;;;5055249;28;20044;-70
2023/07/23 08:44:09;;;;;;;55.92;25.70;;;15.60;99.90;;;;;;5055180;28;20048;-70
2023/07/23 08:46:46;;;;;;;57.08;27.67;;;16.50;99.90;;;;;;5071386;28;20502;-70
2023/07/23 08:49:16;;;;;;;58.67;31.40;;;16.30;99.90;;;;;;5071267;28;20055;-71
2023/07/23 08:51:44;;;;;;;53.92;30.20;;;;;;;;;;5071380;28;20052;-71
2023/07/23 08:54:11;;;;;;;60.70;31.83;;;16.50;99.90;;;;;;5071630;28;20044;-70
2023/07/23 08:56:39;;;;;;;54.88;31.90;;;16.50;99.90;;;;;;5071371;28;20072;-71
2023/07/23 08:59:06;;;;;;;63.03;31.05;;;16.50;99.90;;;;;;5071733;28;20045;-71
2023/07/23 09:01:34;;;;;;;58.13;30.88;;;16.40;99.90;;;;;;5071182;28;20040;-70
2023/07/23 09:04:01;;;;;;;61.95;30.35;;;;;;;;;;5071453;28;20059;-71
2023/07/23 09:06:30;;;;;;;63.10;31.08;;;17.30;99.90;;;;;;5071302;28;20047;-71
2023/07/23 09:09:07;;;;;;;62.17;31.65;;;;;;;;;;5071293;28;20041;-70
2023/07/23 09:11:33;;;;;;;59.72;30.83;;;;;;;;;;5071057;28;20051;-70
2023/07/23 09:14:00;;;;;;;60.80;30.80;;;;;;;;;;5071444;28;20040;-70
2023/07/23 09:16:26;;;;;;;62.65;31.95;;;;;;;;;;5071468;28;20119;-70
2023/07/23 09:18:52;;;;;;;62.58;32.05;;;;;;;;;;5071150;28;20040;-70
2023/07/23 09:21:25;;;;;;;64.03;32.17;;;;;;;;;;5071283;28;20044;-70
2023/07/23 09:23:57;;;;;;;57.25;30.30;;;16.30;99.90;;;;;;5071390;28;20391;-71
2023/07/23 09:26:26;;;;;;;62.90;32.37;;;16.40;99.90;;;;;;5071077;28;20137;-70
2023/07/23 09:28:54;;;;;;;68.07;33.50;;;16.50;99.90;;;;;;5071388;28;20083;-71
2023/07/23 09:31:31;;;;;;;68.63;33.53;;;16.30;99.90;;;;;;5071539;28;20394;-71
2023/07/23 09:34:03;;;;;;;64.43;31.65;;;16.50;99.90;;;;;;5071230;28;20139;-71
2023/07/23 09:36:30;;;;;;;67.40;33.10;;;16.50;99.90;;;;;;5054476;28;20138;-71
2023/07/23 09:38:57;;;;;;;66.80;32.50;;;;;;;;;;5071091;28;20471;-71
2023/07/23 09:41:28;;;;;;;65.13;32.17;;;16.60;99.90;;;;;;5056704;28;20036;-70
2023/07/23 09:43:58;;;;;;;62.90;31.20;;;16.70;99.90;;;;;;5074503;28;20048;-71
2023/07/23 09:46:25;;;;;;;67.68;32.50;;;16.30;99.90;;;;;;5074334;28;20397;-71
2023/07/23 09:48:51;;;;;;;60.88;31.60;;;;;;;;;;5074528;28;20401;-71
2023/07/23 09:51:17;;;;;;;61.45;30.23;;;;;;;;;;5074348;28;20051;-71
2023/07/23 09:53:45;;;;;;;64.97;31.98;;;;;;;;;;5058159;28;20142;-70
2023/07/23 09:56:15;;;;;;;74.03;31.52;;;;;;;;;;5058122;28;20128;-71
2023/07/23 09:58:46;;;;;;;67.30;32.65;;;16.70;99.90;;;;;;5074748;28;20385;-72
2023/07/23 10:01:13;;;;;;;80.07;33.20;;;;;;;;;;5074538;28;20048;-71
2023/07/23 10:03:39;;;;;;;66.20;32.13;;;;;;;;;;5074231;28;20082;-71
2023/07/23 10:06:10;;;;;;;69.25;33.47;;;16.50;99.90;;;;;;5074476;28;20049;-71
2023/07/23 10:08:38;;;;;;;59.35;30.90;;;;;;;;;;5057883;28;20131;-71
2023/07/23 10:11:04;;;;;;;66.53;30.88;;;;;;;;;;5074072;28;20047;-71
2023/07/23 10:13:30;;;;;;;74.18;32.72;;;;;;;;;;5073974;28;20083;-71
2023/07/23 10:15:57;;;;;;;70.35;33.65;;;;;;;;;;5074236;28;20036;-71
2023/07/23 10:18:25;;;;;;;71.88;32.90;;;;;;;;;;5074021;28;20516;-71
2023/07/23 10:20:51;;;;;;;76.43;33.65;;;;;;;;;;5074367;28;20167;-71
2023/07/23 10:23:17;;;;;;;73.50;32.85;;;;;;;;;;5073888;28;20036;-71
2023/07/23 10:25:44;;;;;;;66.55;32.90;;;;;;;;;;5075186;28;20040;-71
2023/07/23 10:28:10;;;;;;;66.03;31.65;;;;;;;;;;5057332;28;20040;-72
2023/07/23 10:30:37;;;;;;;71.90;33.28;;;;;;;;;;5073801;28;20449;-76
2023/07/23 10:33:12;;;;;;;68.93;33.45;;;17.10;99.90;;;;;;5073785;28;20119;-76
2023/07/23 10:35:53;;;;;;;77.15;33.50;;;17.20;99.90;;;;;;5073949;28;20038;-75
2023/07/23 10:38:44;;;;;;;77.35;31.38;;;17.40;99.90;;;;;;5073990;28;20409;-76
2023/07/23 10:41:10;;;;;;;68.57;30.90;;;;;;;;;;5073778;28;20037;-76
2023/07/23 10:43:41;;;;;;;63.28;31.23;;;17.20;99.90;;;;;;5073618;28;20094;-76
2023/07/23 10:46:10;;;;;;;73.97;31.38;;;17.30;99.90;;;;;;5056909;28;20088;-76
2023/07/23 10:48:51;;;;;;;65.28;29.98;;;17.00;99.90;;;;;;5073256;28;20063;-76
2023/07/23 10:51:21;;;;;;;72.75;31.33;;;17.10;99.90;;;;;;5073113;28;20041;-76
2023/07/23 10:54:07;;;;;;;70.65;30.65;;;;;;;;;;5073409;28;20037;-75
2023/07/23 10:56:35;;;;;;;66.10;29.48;;;17.20;99.90;;;;;;5073286;28;20036;-71
2023/07/23 10:59:07;;;;;;;64.72;29.85;;;17.30;99.90;;;;;;5073469;28;20032;-71
2023/07/23 11:01:38;;;;;;;69.70;32.90;;;17.20;99.90;;;;;;5073467;28;20098;-71
2023/07/23 11:04:13;;;;;;;65.22;31.13;;;17.40;99.90;;;;;;5072825;28;20041;-72
2023/07/23 11:06:41;;;;;;;65.78;30.85;;;;;;;;;;5073293;28;20048;-71
2023/07/23 11:09:11;;;;;;;66.30;31.35;;;;;;;;;;5073193;28;20178;-71
2023/07/23 11:11:43;;;;;;;67.70;30.77;;;16.90;99.90;;;;;;5056093;28;20040;-71
2023/07/23 11:14:22;;;;;;;60.85;30.88;;;17.50;99.90;;;;;;5056520;28;20046;-71
2023/07/23 11:16:52;;;;;;;66.00;30.80;;;17.20;99.90;;;;;;5056160;28;20048;-71
2023/07/23 11:19:19;;;;;;;79.38;31.70;;;;;;;;;;5072960;28;20402;-71
2023/07/23 11:21:47;;;;;;;74.25;32.20;;;17.10;99.90;;;;;;5072935;28;20044;-71
2023/07/23 11:24:13;;;;;;;66.30;29.67;;;;;;;;;;5072697;28;20045;-72
2023/07/23 11:26:40;;;;;;;64.43;30.88;;;17.30;99.90;;;;;;5072623;28;20478;-71
2023/07/23 11:29:06;;;;;;;67.72;30.00;;;17.20;99.90;;;;;;5072611;28;20557;-71
2023/07/23 11:31:34;;;;;;;62.10;30.58;;;;;;;;;;5072559;28;20043;-71
2023/07/23 11:34:00;;;;;;;61.42;29.77;;;;;;;;;;5072223;28;20044;-71
2023/07/23 11:36:29;;;;;;;70.43;30.20;;;17.10;99.90;;;;;;5056040;28;20028;-71
2023/07/23 11:38:56;;;;;;;61.55;32.15;;;17.10;99.90;;;;;;5056101;28;20367;-71
2023/07/23 11:41:32;;;;;;;67.28;30.92;;;;;;;;;;5072284;28;20441;-71
2023/07/23 11:44:03;;;;;;;61.83;30.75;;;;;;;;;;5055646;28;20128;-71
2023/07/23 11:46:30;;;;;;;60.65;30.13;;;;;;;;;;5072161;28;20048;-71
2023/07/23 11:48:56;;;;;;;80.15;31.05;;;;;;;;;;5072545;28;20406;-71
2023/07/23 11:51:22;;;;;;;58.92;29.15;;;;;;;;;;5039147;28;20390;-71
2023/07/23 11:53:51;;;;;;;59.08;28.67;;;17.20;99.90;;;;;;5072165;28;20041;-71
2023/07/23 11:56:17;;;;;;;57.05;29.75;;;;;;;;;;5072157;28;20052;-71
2023/07/23 11:58:44;;;;;;;63.75;29.77;;;;;;;;;;5071966;28;20567;-71
2023/07/23 12:01:10;;;;;;;55.45;29.27;;;;;;;;;;5072074;28;20075;-71
2023/07/23 12:03:41;;;;;;;56.35;28.45;;;17.50;99.90;;;;;;5071369;28;20040;-71
2023/07/23 12:06:08;;;;;;;55.75;29.35;;;;;;;;;;5055426;28;20041;-72
2023/07/23 12:08:35;;;;;;;60.22;30.70;;;17.20;99.90;;;;;;5055337;28;20082;-71
2023/07/23 12:11:29;;;;;;;56.85;28.98;;;17.50;99.90;;;;;;5071855;28;20036;-71
2023/07/23 12:13:57;;;;;;;55.47;29.58;;;17.90;99.90;;;;;;5069731;28;20052;-71
2023/07/23 12:16:51;;;;;;;55.15;29.15;;;17.60;99.90;;;;;;5072268;28;20045;-71
2023/07/23 12:19:23;;;;;;;61.97;28.98;;;17.80;99.90;;;;;;5071743;28;20486;-71
2023/07/23 12:22:10;;;;;;;55.65;29.55;;;17.90;99.90;;;;;;5071679;28;20043;-71
2023/07/23 12:24:36;;;;;;;52.72;28.38;;;;;;;;;;5071884;28;20501;-71
2023/07/23 12:27:03;;;;;;;50.28;26.95;;;;;;;;;;5071540;28;20037;-71
2023/07/23 12:29:29;;;;;;;56.15;26.88;;;;;;;;;;5071834;28;20049;-70
2023/07/23 12:32:15;;;;;;;52.25;27.55;;;17.90;99.90;;;;;;5071507;28;20041;-71
2023/07/23 12:34:43;;;;;;;53.03;26.05;;;18.00;99.90;;;;;;5054824;28;20095;-71
2023/07/23 12:37:09;;;;;;;54.33;26.60;;;;;;;;;;5071632;28;20158;-71
2023/07/23 12:39:37;;;;;;;52.60;25.85;;;18.50;99.90;;;;;;5071836;28;20040;-71
2023/07/23 12:42:03;;;;;;;50.88;25.27;;;;;;;;;;5072988;28;20072;-71
2023/07/23 12:44:30;;;;;;;44.35;25.48;;;;;;;;;;5071906;28;20036;-73
2023/07/23 12:46:56;;;;;;;45.80;25.13;;;;;;;;;;5071448;28;20106;-76
2023/07/23 12:49:22;;;;;;;43.45;22.60;;;;;;;;;;5071803;28;20054;-76
2023/07/23 12:51:48;;;;;;;43.10;21.92;;;;;;;;;;5055114;28;20058;-76
2023/07/23 12:54:14;;;;;;;39.72;22.25;;;;;;;;;;5055036;28;20457;-76
2023/07/23 12:56:41;;;;;;;40.72;23.45;;;;;;;;;;5055071;28;20036;-76
2023/07/23 12:59:07;;;;;;;43.72;22.67;;;;;;;;;;5054671;28;20474;-76
2023/07/23 13:01:33;;;;;;;44.97;23.42;;;;;;;;;;5071537;28;20048;-76
2023/07/23 13:03:59;;;;;;;45.53;23.55;;;;;;;;;;5071611;28;20406;-76
2023/07/23 13:06:25;;;;;;;39.63;21.98;;;;;;;;;;5071425;28;20040;-76
2023/07/23 13:08:51;;;;;;;39.60;20.58;;;;;;;;;;5054726;28;20045;-76
2023/07/23 13:11:17;;;;;;;37.58;20.15;;;;;;;;;;5055021;28;20049;-76
2023/07/23 13:13:43;;;;;;;46.85;19.05;;;;;;;;;;5071603;28;20043;-76
2023/07/23 13:16:09;;;;;;;32.28;16.33;;;19.30;99.90;;;;;;5073597;28;20040;-72
2023/07/23 13:18:38;;;;;;;27.25;14.20;;;18.80;99.90;;;;;;5058738;28;20040;-71
2023/07/23 13:21:03;;;;;;;30.20;14.30;;;19.30;99.90;;;;;;5075271;28;20391;-71
2023/07/23 13:23:29;;;;;;;35.58;13.27;;;;;;;;;;5074885;28;20042;-71
2023/07/23 13:25:56;;;;;;;32.38;12.70;;;;;;;;;;5074799;28;20049;-72
2023/07/23 13:28:22;;;;;;;31.42;12.75;;;;;;;;;;5058267;28;20516;-72
2023/07/23 13:30:49;;;;;;;28.75;12.20;;;;;;;;;;5075068;28;20474;-76
2023/07/23 13:33:16;;;;;;;29.73;12.88;;;19.60;99.90;;;;;;5058668;28;20117;-76
2023/07/23 13:35:41;;;;;;;33.03;13.10;;;19.50;99.90;;;;;;5074952;28;20036;-76
2023/07/23 13:38:09;;;;;;;39.28;12.40;;;;;;;;;;5075165;28;20044;-72
2023/07/23 13:40:35;;;;;;;38.13;14.18;;;;;;;;;;5058334;28;20052;-71
2023/07/23 13:43:02;;;;;;;33.33;14.00;;;;;;;;;;5058326;28;20469;-71
2023/07/23 13:45:28;;;;;;;37.13;12.63;;;18.70;99.90;;;;;;5074599;28;20043;-71
2023/07/23 13:47:54;;;;;;;30.73;12.90;;;;;;;;;;5074580;28;20040;-72